Terminal Aerodrome Forecast
Issued by NWS

Home | Current Version | Previous Version | Text Only | Print | Product List | Glossary On
Versions: 1 2 3 4 5 6 7 8 9 10 11 12 13 14 15 16 17 18 19 20 21 22 23 24 25 26 27 28 29 30 31 32
000
FTAK31 PAFC 202327 CCA
TAFAEN
TAF COR
PAEN 202327Z 2023/2124 23011KT 6SM BR BKN008
      TEMPO 2100/2101 3SM BR BKN004
     FM210200 21009KT P6SM SCT030
     FM211000 20007KT 4SM BR OVC004
     FM211700 20006KT P6SM FEW250=

USA.gov is the U.S. government's official web portal to all federal, state and local government web resources and services.